Terminal Aerodrome Forecast
Issued by NWS

Home | Current Version | Previous Version | Text Only | Print | Product List | Glossary Off
Versions: 1 2 3 4 5 6 7 8 9 10 11 12 13 14 15 16 17

614
FTUS43 KGRB 232336
TAFCWA
TAF
KCWA 232336Z 2400/2424 17009KT P6SM SCT040 BKN200
     FM240400 16008KT P6SM VCSH BKN035 OVC150
      TEMPO 2405/2409 3SM TSRA BR BKN015 OVC035CB
     FM240900 16008KT 2SM TSRA BR BKN006 OVC012CB
     FM241300 19009G15KT 5SM HZ VCSH BKN008 OVC015
     FM241700 23010G17KT 6SM HZ SCT015 BKN035
      TEMPO 2417/2420 BKN015
      AMD LTD TO CLD VIS AND WIND 2403/2411=

USA.gov is the U.S. government's official web portal to all federal, state and local government web resources and services.